sensor_id;sensor_type;location;lat;lon;timestamp;P1;durP1;ratioP1;P2;durP2;ratioP2
77890;SDS011;67084;43.624;3.876;2023-02-01T00:01:28;33.95;;;23.92;;
77890;SDS011;67084;43.624;3.876;2023-02-01T00:03:55;27.77;;;17.88;;
77890;SDS011;67084;43.624;3.876;2023-02-01T00:06:21;43.25;;;29.55;;
77890;SDS011;67084;43.624;3.876;2023-02-01T00:08:47;35.25;;;27.75;;
77890;SDS011;67084;43.624;3.876;2023-02-01T00:11:13;33.25;;;26.05;;
77890;SDS011;67084;43.624;3.876;2023-02-01T00:13:40;26.15;;;23.33;;
77890;SDS011;67084;43.624;3.876;2023-02-01T00:16:10;24.60;;;20.27;;
77890;SDS011;67084;43.624;3.876;2023-02-01T00:18:37;22.52;;;20.27;;
77890;SDS011;67084;43.624;3.876;2023-02-01T00:21:03;24.00;;;21.50;;
77890;SDS011;67084;43.624;3.876;2023-02-01T00:23:33;20.88;;;15.95;;
77890;SDS011;67084;43.624;3.876;2023-02-01T00:26:03;23.73;;;20.58;;
77890;SDS011;67084;43.624;3.876;2023-02-01T00:28:29;24.17;;;21.58;;
77890;SDS011;67084;43.624;3.876;2023-02-01T00:31:02;21.08;;;18.90;;
77890;SDS011;67084;43.624;3.876;2023-02-01T00:33:28;21.80;;;19.80;;
77890;SDS011;67084;43.624;3.876;2023-02-01T00:35:57;18.77;;;14.52;;
77890;SDS011;67084;43.624;3.876;2023-02-01T00:38:24;22.25;;;20.10;;
77890;SDS011;67084;43.624;3.876;2023-02-01T00:40:50;18.15;;;13.82;;
77890;SDS011;67084;43.624;3.876;2023-02-01T00:43:16;21.75;;;19.73;;
77890;SDS011;67084;43.624;3.876;2023-02-01T00:45:42;18.42;;;16.65;;
77890;SDS011;67084;43.624;3.876;2023-02-01T00:48:08;13.98;;;11.85;;
77890;SDS011;67084;43.624;3.876;2023-02-01T00:50:34;20.23;;;18.08;;
77890;SDS011;67084;43.624;3.876;2023-02-01T00:53:00;20.95;;;18.92;;
77890;SDS011;67084;43.624;3.876;2023-02-01T00:55:26;13.63;;;11.80;;
77890;SDS011;67084;43.624;3.876;2023-02-01T00:57:52;19.38;;;17.30;;
77890;SDS011;67084;43.624;3.876;2023-02-01T01:00:18;19.27;;;17.27;;
77890;SDS011;67084;43.624;3.876;2023-02-01T01:02:44;22.73;;;20.52;;
77890;SDS011;67084;43.624;3.876;2023-02-01T01:05:10;21.92;;;20.10;;
77890;SDS011;67084;43.624;3.876;2023-02-01T01:07:36;23.65;;;21.48;;
77890;SDS011;67084;43.624;3.876;2023-02-01T01:10:02;19.85;;;18.05;;
77890;SDS011;67084;43.624;3.876;2023-02-01T01:12:28;19.70;;;17.52;;
77890;SDS011;67084;43.624;3.876;2023-02-01T01:14:54;29.05;;;23.73;;
77890;SDS011;67084;43.624;3.876;2023-02-01T01:17:20;23.73;;;21.25;;
77890;SDS011;67084;43.624;3.876;2023-02-01T01:19:46;25.48;;;22.98;;
77890;SDS011;67084;43.624;3.876;2023-02-01T01:22:13;18.67;;;17.05;;
77890;SDS011;67084;43.624;3.876;2023-02-01T01:24:39;18.23;;;16.35;;
77890;SDS011;67084;43.624;3.876;2023-02-01T01:27:05;23.17;;;21.02;;
77890;SDS011;67084;43.624;3.876;2023-02-01T01:29:31;24.33;;;21.83;;
77890;SDS011;67084;43.624;3.876;2023-02-01T01:31:57;23.75;;;21.27;;
77890;SDS011;67084;43.624;3.876;2023-02-01T01:34:23;21.85;;;19.67;;
77890;SDS011;67084;43.624;3.876;2023-02-01T01:36:49;28.80;;;24.83;;
77890;SDS011;67084;43.624;3.876;2023-02-01T01:39:15;25.77;;;19.75;;
77890;SDS011;67084;43.624;3.876;2023-02-01T01:41:41;22.38;;;20.13;;
77890;SDS011;67084;43.624;3.876;2023-02-01T01:44:55;23.17;;;21.00;;
77890;SDS011;67084;43.624;3.876;2023-02-01T01:46:53;26.75;;;23.73;;
77890;SDS011;67084;43.624;3.876;2023-02-01T01:49:21;34.78;;;27.20;;
77890;SDS011;67084;43.624;3.876;2023-02-01T01:51:50;25.25;;;22.05;;
77890;SDS011;67084;43.624;3.876;2023-02-01T01:54:18;34.63;;;27.77;;
77890;SDS011;67084;43.624;3.876;2023-02-01T01:56:47;23.92;;;21.30;;
77890;SDS011;67084;43.624;3.876;2023-02-01T01:59:15;24.15;;;21.73;;
77890;SDS011;67084;43.624;3.876;2023-02-01T02:01:42;27.75;;;25.05;;
77890;SDS011;67084;43.624;3.876;2023-02-01T02:04:08;24.92;;;21.45;;
77890;SDS011;67084;43.624;3.876;2023-02-01T02:06:36;22.65;;;20.13;;
77890;SDS011;67084;43.624;3.876;2023-02-01T02:09:03;23.48;;;20.95;;
77890;SDS011;67084;43.624;3.876;2023-02-01T02:11:29;22.30;;;19.90;;
77890;SDS011;67084;43.624;3.876;2023-02-01T02:13:55;26.85;;;24.10;;
77890;SDS011;67084;43.624;3.876;2023-02-01T02:19:10;39.90;;;26.15;;
77890;SDS011;67084;43.624;3.876;2023-02-01T02:21:48;74.32;;;38.72;;
77890;SDS011;67084;43.624;3.876;2023-02-01T02:24:29;69.32;;;35.28;;
77890;SDS011;67084;43.624;3.876;2023-02-01T02:27:01;39.08;;;25.58;;
77890;SDS011;67084;43.624;3.876;2023-02-01T02:34:58;17.52;;;16.02;;
77890;SDS011;67084;43.624;3.876;2023-02-01T02:48:17;27.05;;;19.63;;
77890;SDS011;67084;43.624;3.876;2023-02-01T02:50:45;112.85;;;41.25;;
77890;SDS011;67084;43.624;3.876;2023-02-01T02:53:35;156.20;;;50.03;;
77890;SDS011;67084;43.624;3.876;2023-02-01T02:56:22;191.50;;;62.55;;
77890;SDS011;67084;43.624;3.876;2023-02-01T02:59:08;90.05;;;38.15;;
77890;SDS011;67084;43.624;3.876;2023-02-01T03:01:53;71.28;;;40.25;;
77890;SDS011;67084;43.624;3.876;2023-02-01T03:04:38;33.30;;;24.55;;
77890;SDS011;67084;43.624;3.876;2023-02-01T03:09:57;43.95;;;30.48;;
77890;SDS011;67084;43.624;3.876;2023-02-01T03:12:29;30.92;;;24.05;;
77890;SDS011;67084;43.624;3.876;2023-02-01T03:15:17;35.83;;;23.95;;
77890;SDS011;67084;43.624;3.876;2023-02-01T03:17:44;24.75;;;22.25;;
77890;SDS011;67084;43.624;3.876;2023-02-01T03:20:11;22.40;;;19.88;;
77890;SDS011;67084;43.624;3.876;2023-02-01T03:22:38;30.75;;;27.05;;
77890;SDS011;67084;43.624;3.876;2023-02-01T03:25:07;14.98;;;13.60;;
77890;SDS011;67084;43.624;3.876;2023-02-01T03:27:56;15.45;;;14.30;;
77890;SDS011;67084;43.624;3.876;2023-02-01T03:30:23;18.67;;;16.98;;
77890;SDS011;67084;43.624;3.876;2023-02-01T03:37:53;16.42;;;15.07;;
77890;SDS011;67084;43.624;3.876;2023-02-01T03:40:20;18.67;;;17.25;;
77890;SDS011;67084;43.624;3.876;2023-02-01T03:42:48;20.42;;;18.92;;
77890;SDS011;67084;43.624;3.876;2023-02-01T03:45:27;13.02;;;11.93;;
77890;SDS011;67084;43.624;3.876;2023-02-01T03:47:55;15.35;;;14.15;;
77890;SDS011;67084;43.624;3.876;2023-02-01T03:50:22;8.65;;;7.82;;
77890;SDS011;67084;43.624;3.876;2023-02-01T03:52:54;15.52;;;14.35;;
77890;SDS011;67084;43.624;3.876;2023-02-01T03:55:23;16.98;;;15.77;;
77890;SDS011;67084;43.624;3.876;2023-02-01T04:00:58;17.88;;;16.38;;
77890;SDS011;67084;43.624;3.876;2023-02-01T04:03:24;15.70;;;14.20;;
77890;SDS011;67084;43.624;3.876;2023-02-01T04:05:50;16.83;;;15.50;;
77890;SDS011;67084;43.624;3.876;2023-02-01T04:08:17;18.60;;;16.75;;
77890;SDS011;67084;43.624;3.876;2023-02-01T04:10:43;18.83;;;17.30;;
77890;SDS011;67084;43.624;3.876;2023-02-01T04:13:09;22.00;;;20.20;;
77890;SDS011;67084;43.624;3.876;2023-02-01T04:15:35;19.38;;;17.88;;
77890;SDS011;67084;43.624;3.876;2023-02-01T04:18:02;17.48;;;16.08;;
77890;SDS011;67084;43.624;3.876;2023-02-01T04:20:28;19.48;;;17.73;;
77890;SDS011;67084;43.624;3.876;2023-02-01T04:22:54;17.45;;;16.05;;
77890;SDS011;67084;43.624;3.876;2023-02-01T04:25:20;17.23;;;15.82;;
77890;SDS011;67084;43.624;3.876;2023-02-01T04:27:46;14.77;;;13.60;;
77890;SDS011;67084;43.624;3.876;2023-02-01T04:30:12;13.52;;;12.43;;
77890;SDS011;67084;43.624;3.876;2023-02-01T04:32:38;14.82;;;13.52;;
77890;SDS011;67084;43.624;3.876;2023-02-01T04:35:04;19.10;;;17.77;;
77890;SDS011;67084;43.624;3.876;2023-02-01T04:37:31;16.08;;;14.68;;
77890;SDS011;67084;43.624;3.876;2023-02-01T04:39:57;16.00;;;14.70;;
77890;SDS011;67084;43.624;3.876;2023-02-01T04:42:23;14.57;;;13.35;;
77890;SDS011;67084;43.624;3.876;2023-02-01T04:44:49;15.27;;;14.20;;
77890;SDS011;67084;43.624;3.876;2023-02-01T04:47:15;14.15;;;12.80;;
77890;SDS011;67084;43.624;3.876;2023-02-01T04:49:41;7.72;;;7.03;;
77890;SDS011;67084;43.624;3.876;2023-02-01T04:52:07;15.88;;;14.77;;
77890;SDS011;67084;43.624;3.876;2023-02-01T04:54:33;14.82;;;13.70;;
77890;SDS011;67084;43.624;3.876;2023-02-01T04:56:59;14.10;;;12.88;;
77890;SDS011;67084;43.624;3.876;2023-02-01T04:59:26;14.13;;;13.00;;
77890;SDS011;67084;43.624;3.876;2023-02-01T05:01:52;17.20;;;16.00;;
77890;SDS011;67084;43.624;3.876;2023-02-01T05:04:18;14.68;;;13.57;;
77890;SDS011;67084;43.624;3.876;2023-02-01T05:06:44;9.00;;;8.10;;
77890;SDS011;67084;43.624;3.876;2023-02-01T05:09:10;17.08;;;15.88;;
77890;SDS011;67084;43.624;3.876;2023-02-01T05:11:37;15.18;;;14.00;;
77890;SDS011;67084;43.624;3.876;2023-02-01T05:14:22;14.52;;;13.43;;
77890;SDS011;67084;43.624;3.876;2023-02-01T05:16:48;15.25;;;13.68;;
77890;SDS011;67084;43.624;3.876;2023-02-01T05:19:14;13.02;;;12.00;;
77890;SDS011;67084;43.624;3.876;2023-02-01T05:21:40;16.02;;;14.35;;
77890;SDS011;67084;43.624;3.876;2023-02-01T05:24:07;14.10;;;12.82;;
77890;SDS011;67084;43.624;3.876;2023-02-01T05:26:44;16.23;;;15.02;;
77890;SDS011;67084;43.624;3.876;2023-02-01T05:29:10;16.85;;;15.57;;
77890;SDS011;67084;43.624;3.876;2023-02-01T05:31:36;14.82;;;13.52;;
77890;SDS011;67084;43.624;3.876;2023-02-01T05:34:02;8.90;;;6.90;;
77890;SDS011;67084;43.624;3.876;2023-02-01T05:36:28;14.57;;;13.35;;
77890;SDS011;67084;43.624;3.876;2023-02-01T05:38:54;14.77;;;13.73;;
77890;SDS011;67084;43.624;3.876;2023-02-01T05:41:20;14.77;;;13.70;;
77890;SDS011;67084;43.624;3.876;2023-02-01T05:43:46;14.82;;;13.73;;
77890;SDS011;67084;43.624;3.876;2023-02-01T05:46:12;13.68;;;12.63;;
77890;SDS011;67084;43.624;3.876;2023-02-01T05:48:39;13.50;;;12.57;;
77890;SDS011;67084;43.624;3.876;2023-02-01T05:51:05;12.55;;;11.45;;
77890;SDS011;67084;43.624;3.876;2023-02-01T05:53:31;14.30;;;13.15;;
77890;SDS011;67084;43.624;3.876;2023-02-01T05:55:57;15.90;;;14.73;;
77890;SDS011;67084;43.624;3.876;2023-02-01T05:58:23;15.35;;;14.13;;
77890;SDS011;67084;43.624;3.876;2023-02-01T06:00:49;16.95;;;15.82;;
77890;SDS011;67084;43.624;3.876;2023-02-01T06:03:16;9.02;;;8.23;;
77890;SDS011;67084;43.624;3.876;2023-02-01T06:05:45;16.58;;;15.27;;
77890;SDS011;67084;43.624;3.876;2023-02-01T06:08:12;16.63;;;15.18;;
77890;SDS011;67084;43.624;3.876;2023-02-01T06:10:38;19.77;;;18.23;;
77890;SDS011;67084;43.624;3.876;2023-02-01T06:13:04;24.33;;;22.05;;
77890;SDS011;67084;43.624;3.876;2023-02-01T06:15:30;19.42;;;17.55;;
77890;SDS011;67084;43.624;3.876;2023-02-01T06:17:57;19.25;;;17.65;;
77890;SDS011;67084;43.624;3.876;2023-02-01T06:20:23;16.25;;;14.75;;
77890;SDS011;67084;43.624;3.876;2023-02-01T06:22:49;13.95;;;12.63;;
77890;SDS011;67084;43.624;3.876;2023-02-01T06:25:17;16.20;;;14.57;;
77890;SDS011;67084;43.624;3.876;2023-02-01T06:27:44;18.20;;;16.30;;
77890;SDS011;67084;43.624;3.876;2023-02-01T06:30:10;14.32;;;12.98;;
77890;SDS011;67084;43.624;3.876;2023-02-01T06:32:38;16.17;;;14.75;;
77890;SDS011;67084;43.624;3.876;2023-02-01T06:35:06;15.38;;;14.15;;
77890;SDS011;67084;43.624;3.876;2023-02-01T06:37:32;16.90;;;15.55;;
77890;SDS011;67084;43.624;3.876;2023-02-01T06:39:59;14.75;;;13.45;;
77890;SDS011;67084;43.624;3.876;2023-02-01T06:42:25;16.48;;;15.27;;
77890;SDS011;67084;43.624;3.876;2023-02-01T06:44:51;14.75;;;13.38;;
77890;SDS011;67084;43.624;3.876;2023-02-01T06:47:17;15.10;;;13.63;;
77890;SDS011;67084;43.624;3.876;2023-02-01T06:49:46;8.85;;;7.20;;
77890;SDS011;67084;43.624;3.876;2023-02-01T06:52:12;13.82;;;12.63;;
77890;SDS011;67084;43.624;3.876;2023-02-01T06:54:38;16.88;;;15.38;;
77890;SDS011;67084;43.624;3.876;2023-02-01T06:57:04;8.65;;;7.75;;
77890;SDS011;67084;43.624;3.876;2023-02-01T06:59:30;14.20;;;12.82;;
77890;SDS011;67084;43.624;3.876;2023-02-01T07:01:56;16.58;;;14.93;;
77890;SDS011;67084;43.624;3.876;2023-02-01T07:04:22;9.43;;;7.88;;
77890;SDS011;67084;43.624;3.876;2023-02-01T07:06:48;8.40;;;7.50;;
77890;SDS011;67084;43.624;3.876;2023-02-01T07:09:14;14.13;;;12.80;;
77890;SDS011;67084;43.624;3.876;2023-02-01T07:11:40;14.75;;;13.10;;
77890;SDS011;67084;43.624;3.876;2023-02-01T07:14:08;18.90;;;16.92;;
77890;SDS011;67084;43.624;3.876;2023-02-01T07:16:35;14.15;;;12.98;;
77890;SDS011;67084;43.624;3.876;2023-02-01T07:19:01;13.75;;;12.40;;
77890;SDS011;67084;43.624;3.876;2023-02-01T07:21:27;16.30;;;14.65;;
77890;SDS011;67084;43.624;3.876;2023-02-01T07:23:53;14.63;;;13.43;;
77890;SDS011;67084;43.624;3.876;2023-02-01T07:26:20;14.68;;;13.15;;
77890;SDS011;67084;43.624;3.876;2023-02-01T07:28:46;15.30;;;14.07;;
77890;SDS011;67084;43.624;3.876;2023-02-01T07:31:13;16.15;;;14.82;;
77890;SDS011;67084;43.624;3.876;2023-02-01T07:33:46;17.33;;;15.63;;
77890;SDS011;67084;43.624;3.876;2023-02-01T07:36:14;23.80;;;20.13;;
77890;SDS011;67084;43.624;3.876;2023-02-01T07:38:40;33.05;;;23.17;;
77890;SDS011;67084;43.624;3.876;2023-02-01T07:41:09;28.13;;;23.40;;
77890;SDS011;67084;43.624;3.876;2023-02-01T07:43:35;20.75;;;13.27;;
77890;SDS011;67084;43.624;3.876;2023-02-01T07:46:02;22.95;;;20.55;;
77890;SDS011;67084;43.624;3.876;2023-02-01T07:48:28;23.65;;;21.50;;
77890;SDS011;67084;43.624;3.876;2023-02-01T07:53:50;17.77;;;15.25;;
77890;SDS011;67084;43.624;3.876;2023-02-01T07:56:17;32.42;;;25.13;;
77890;SDS011;67084;43.624;3.876;2023-02-01T07:58:46;21.63;;;18.35;;
77890;SDS011;67084;43.624;3.876;2023-02-01T08:01:13;27.70;;;19.67;;
77890;SDS011;67084;43.624;3.876;2023-02-01T08:03:59;26.48;;;19.58;;
77890;SDS011;67084;43.624;3.876;2023-02-01T08:06:26;20.65;;;18.17;;
77890;SDS011;67084;43.624;3.876;2023-02-01T08:08:52;20.15;;;17.38;;
77890;SDS011;67084;43.624;3.876;2023-02-01T08:11:19;25.05;;;20.95;;
77890;SDS011;67084;43.624;3.876;2023-02-01T08:13:46;19.38;;;17.27;;
77890;SDS011;67084;43.624;3.876;2023-02-01T08:16:12;20.33;;;17.10;;
77890;SDS011;67084;43.624;3.876;2023-02-01T08:18:44;19.95;;;18.10;;
77890;SDS011;67084;43.624;3.876;2023-02-01T08:21:14;30.25;;;22.63;;
77890;SDS011;67084;43.624;3.876;2023-02-01T08:23:41;24.67;;;21.40;;
77890;SDS011;67084;43.624;3.876;2023-02-01T08:26:21;14.90;;;11.60;;
77890;SDS011;67084;43.624;3.876;2023-02-01T08:28:49;18.92;;;17.13;;
77890;SDS011;67084;43.624;3.876;2023-02-01T08:31:15;18.88;;;16.08;;
77890;SDS011;67084;43.624;3.876;2023-02-01T08:33:42;17.02;;;15.27;;
77890;SDS011;67084;43.624;3.876;2023-02-01T08:36:09;14.90;;;12.07;;
77890;SDS011;67084;43.624;3.876;2023-02-01T08:38:36;18.77;;;16.92;;
77890;SDS011;67084;43.624;3.876;2023-02-01T08:41:13;18.77;;;16.77;;
77890;SDS011;67084;43.624;3.876;2023-02-01T08:43:39;20.45;;;17.75;;
77890;SDS011;67084;43.624;3.876;2023-02-01T08:46:05;23.63;;;18.08;;
77890;SDS011;67084;43.624;3.876;2023-02-01T08:48:32;22.80;;;16.83;;
77890;SDS011;67084;43.624;3.876;2023-02-01T08:51:01;22.92;;;17.70;;
77890;SDS011;67084;43.624;3.876;2023-02-01T08:53:28;32.72;;;20.27;;
77890;SDS011;67084;43.624;3.876;2023-02-01T08:55:54;23.88;;;19.95;;
77890;SDS011;67084;43.624;3.876;2023-02-01T08:58:20;23.10;;;20.75;;
77890;SDS011;67084;43.624;3.876;2023-02-01T09:00:46;22.33;;;16.65;;
77890;SDS011;67084;43.624;3.876;2023-02-01T09:03:13;17.70;;;16.02;;
77890;SDS011;67084;43.624;3.876;2023-02-01T09:05:39;15.85;;;14.20;;
77890;SDS011;67084;43.624;3.876;2023-02-01T09:08:05;14.07;;;12.77;;
77890;SDS011;67084;43.624;3.876;2023-02-01T09:10:32;12.57;;;11.38;;
77890;SDS011;67084;43.624;3.876;2023-02-01T09:12:58;14.57;;;12.02;;
77890;SDS011;67084;43.624;3.876;2023-02-01T09:15:24;12.70;;;11.70;;
77890;SDS011;67084;43.624;3.876;2023-02-01T09:17:50;9.90;;;9.10;;
77890;SDS011;67084;43.624;3.876;2023-02-01T09:20:16;12.80;;;11.77;;
77890;SDS011;67084;43.624;3.876;2023-02-01T09:22:45;10.13;;;9.32;;
77890;SDS011;67084;43.624;3.876;2023-02-01T09:25:11;11.80;;;11.00;;
77890;SDS011;67084;43.624;3.876;2023-02-01T09:27:40;10.23;;;9.40;;
77890;SDS011;67084;43.624;3.876;2023-02-01T09:30:06;10.48;;;9.73;;
77890;SDS011;67084;43.624;3.876;2023-02-01T09:32:32;10.00;;;9.35;;
77890;SDS011;67084;43.624;3.876;2023-02-01T09:34:58;10.40;;;9.60;;
77890;SDS011;67084;43.624;3.876;2023-02-01T09:37:24;8.75;;;8.23;;
77890;SDS011;67084;43.624;3.876;2023-02-01T09:39:50;9.75;;;9.05;;
77890;SDS011;67084;43.624;3.876;2023-02-01T09:42:20;9.98;;;9.18;;
77890;SDS011;67084;43.624;3.876;2023-02-01T09:47:13;8.50;;;7.95;;
77890;SDS011;67084;43.624;3.876;2023-02-01T09:49:43;10.00;;;9.40;;
77890;SDS011;67084;43.624;3.876;2023-02-01T09:52:11;5.35;;;5.00;;
77890;SDS011;67084;43.624;3.876;2023-02-01T09:54:40;10.40;;;9.57;;
77890;SDS011;67084;43.624;3.876;2023-02-01T09:57:08;9.10;;;8.30;;
77890;SDS011;67084;43.624;3.876;2023-02-01T10:02:03;8.40;;;7.80;;
77890;SDS011;67084;43.624;3.876;2023-02-01T10:04:30;11.48;;;10.68;;
77890;SDS011;67084;43.624;3.876;2023-02-01T10:25:17;8.50;;;7.90;;
77890;SDS011;67084;43.624;3.876;2023-02-01T10:27:45;7.28;;;6.68;;
77890;SDS011;67084;43.624;3.876;2023-02-01T10:32:38;7.30;;;6.63;;
77890;SDS011;67084;43.624;3.876;2023-02-01T10:35:10;5.30;;;3.90;;
77890;SDS011;67084;43.624;3.876;2023-02-01T10:37:39;7.22;;;6.57;;
77890;SDS011;67084;43.624;3.876;2023-02-01T10:40:17;7.40;;;6.90;;
77890;SDS011;67084;43.624;3.876;2023-02-01T10:42:45;19.60;;;17.80;;
77890;SDS011;67084;43.624;3.876;2023-02-01T10:45:14;6.90;;;6.43;;
77890;SDS011;67084;43.624;3.876;2023-02-01T10:47:45;25.25;;;22.60;;
77890;SDS011;67084;43.624;3.876;2023-02-01T10:57:55;7.57;;;7.00;;
77890;SDS011;67084;43.624;3.876;2023-02-01T11:00:22;7.20;;;6.70;;
77890;SDS011;67084;43.624;3.876;2023-02-01T11:02:48;6.38;;;5.80;;
77890;SDS011;67084;43.624;3.876;2023-02-01T11:05:15;6.78;;;6.28;;
77890;SDS011;67084;43.624;3.876;2023-02-01T11:07:50;6.30;;;5.88;;
77890;SDS011;67084;43.624;3.876;2023-02-01T11:10:39;5.70;;;5.30;;
77890;SDS011;67084;43.624;3.876;2023-02-01T11:15:31;3.63;;;3.22;;
77890;SDS011;67084;43.624;3.876;2023-02-01T11:17:57;6.03;;;5.53;;
77890;SDS011;67084;43.624;3.876;2023-02-01T11:20:40;3.03;;;2.67;;
77890;SDS011;67084;43.624;3.876;2023-02-01T11:23:13;4.65;;;2.85;;
77890;SDS011;67084;43.624;3.876;2023-02-01T11:25:40;5.30;;;4.90;;
77890;SDS011;67084;43.624;3.876;2023-02-01T11:28:13;5.72;;;5.32;;
77890;SDS011;67084;43.624;3.876;2023-02-01T11:30:41;8.77;;;8.07;;
77890;SDS011;67084;43.624;3.876;2023-02-01T11:33:12;11.13;;;10.13;;
77890;SDS011;67084;43.624;3.876;2023-02-01T11:35:39;6.22;;;5.72;;
77890;SDS011;67084;43.624;3.876;2023-02-01T11:38:20;5.63;;;4.97;;
77890;SDS011;67084;43.624;3.876;2023-02-01T11:40:47;5.90;;;5.47;;
77890;SDS011;67084;43.624;3.876;2023-02-01T11:43:18;4.90;;;4.50;;
77890;SDS011;67084;43.624;3.876;2023-02-01T11:45:55;2.80;;;2.58;;
77890;SDS011;67084;43.624;3.876;2023-02-01T11:48:23;5.00;;;4.60;;
77890;SDS011;67084;43.624;3.876;2023-02-01T11:58:27;5.72;;;5.43;;
77890;SDS011;67084;43.624;3.876;2023-02-01T12:24:45;8.70;;;7.95;;
77890;SDS011;67084;43.624;3.876;2023-02-01T12:29:54;11.43;;;10.45;;
77890;SDS011;67084;43.624;3.876;2023-02-01T12:32:50;18.25;;;16.45;;
77890;SDS011;67084;43.624;3.876;2023-02-01T12:40:41;21.48;;;16.73;;
77890;SDS011;67084;43.624;3.876;2023-02-01T12:43:10;26.27;;;22.35;;
77890;SDS011;67084;43.624;3.876;2023-02-01T12:48:57;28.67;;;24.38;;
77890;SDS011;67084;43.624;3.876;2023-02-01T12:51:22;11.57;;;10.43;;
77890;SDS011;67084;43.624;3.876;2023-02-01T12:54:24;15.50;;;13.88;;
77890;SDS011;67084;43.624;3.876;2023-02-01T13:01:45;18.83;;;17.30;;
77890;SDS011;67084;43.624;3.876;2023-02-01T13:04:18;8.20;;;6.13;;
77890;SDS011;67084;43.624;3.876;2023-02-01T13:06:47;8.07;;;6.57;;
77890;SDS011;67084;43.624;3.876;2023-02-01T13:11:45;9.10;;;8.40;;
77890;SDS011;67084;43.624;3.876;2023-02-01T13:16:51;15.60;;;14.38;;
77890;SDS011;67084;43.624;3.876;2023-02-01T13:19:20;8.77;;;8.18;;
77890;SDS011;67084;43.624;3.876;2023-02-01T13:21:50;4.45;;;4.05;;
77890;SDS011;67084;43.624;3.876;2023-02-01T13:24:33;8.95;;;8.32;;
77890;SDS011;67084;43.624;3.876;2023-02-01T13:27:02;14.95;;;13.95;;
77890;SDS011;67084;43.624;3.876;2023-02-01T13:29:28;9.25;;;8.65;;
77890;SDS011;67084;43.624;3.876;2023-02-01T13:42:32;8.40;;;7.80;;
77890;SDS011;67084;43.624;3.876;2023-02-01T13:45:00;2.72;;;2.50;;
77890;SDS011;67084;43.624;3.876;2023-02-01T13:47:32;5.90;;;5.45;;
77890;SDS011;67084;43.624;3.876;2023-02-01T13:50:02;6.57;;;6.18;;
77890;SDS011;67084;43.624;3.876;2023-02-01T13:52:36;6.38;;;5.97;;
77890;SDS011;67084;43.624;3.876;2023-02-01T13:57:48;7.07;;;6.55;;
77890;SDS011;67084;43.624;3.876;2023-02-01T14:03:17;6.05;;;5.47;;
77890;SDS011;67084;43.624;3.876;2023-02-01T14:08:13;32.03;;;28.10;;
77890;SDS011;67084;43.624;3.876;2023-02-01T14:10:54;9.20;;;8.40;;
77890;SDS011;67084;43.624;3.876;2023-02-01T14:13:30;6.45;;;6.00;;
77890;SDS011;67084;43.624;3.876;2023-02-01T14:23:40;4.13;;;3.85;;
77890;SDS011;67084;43.624;3.876;2023-02-01T14:26:07;6.57;;;6.15;;
77890;SDS011;67084;43.624;3.876;2023-02-01T14:28:35;8.02;;;7.53;;
77890;SDS011;67084;43.624;3.876;2023-02-01T14:31:03;7.30;;;6.70;;
77890;SDS011;67084;43.624;3.876;2023-02-01T14:33:40;17.23;;;15.50;;
77890;SDS011;67084;43.624;3.876;2023-02-01T14:36:10;12.73;;;11.52;;
77890;SDS011;67084;43.624;3.876;2023-02-01T14:38:37;15.23;;;13.60;;
77890;SDS011;67084;43.624;3.876;2023-02-01T14:41:23;29.45;;;24.25;;
77890;SDS011;67084;43.624;3.876;2023-02-01T14:49:14;17.42;;;13.98;;
77890;SDS011;67084;43.624;3.876;2023-02-01T14:51:41;23.20;;;16.45;;
77890;SDS011;67084;43.624;3.876;2023-02-01T14:54:08;5.90;;;5.50;;
77890;SDS011;67084;43.624;3.876;2023-02-01T14:56:38;7.45;;;6.93;;
77890;SDS011;67084;43.624;3.876;2023-02-01T14:59:08;5.55;;;5.25;;
77890;SDS011;67084;43.624;3.876;2023-02-01T15:01:38;9.57;;;8.77;;
77890;SDS011;67084;43.624;3.876;2023-02-01T15:04:11;11.88;;;10.88;;
77890;SDS011;67084;43.624;3.876;2023-02-01T15:06:52;7.45;;;6.93;;
77890;SDS011;67084;43.624;3.876;2023-02-01T15:09:24;5.70;;;5.22;;
77890;SDS011;67084;43.624;3.876;2023-02-01T15:11:58;13.13;;;11.98;;
77890;SDS011;67084;43.624;3.876;2023-02-01T15:14:25;7.82;;;7.22;;
77890;SDS011;67084;43.624;3.876;2023-02-01T15:16:51;7.07;;;6.63;;
77890;SDS011;67084;43.624;3.876;2023-02-01T15:19:21;6.28;;;5.88;;
77890;SDS011;67084;43.624;3.876;2023-02-01T15:24:23;7.40;;;6.90;;
77890;SDS011;67084;43.624;3.876;2023-02-01T15:26:50;7.57;;;7.07;;
77890;SDS011;67084;43.624;3.876;2023-02-01T15:29:17;6.05;;;5.70;;
77890;SDS011;67084;43.624;3.876;2023-02-01T15:31:50;6.43;;;6.03;;
77890;SDS011;67084;43.624;3.876;2023-02-01T15:34:17;7.15;;;6.75;;
77890;SDS011;67084;43.624;3.876;2023-02-01T15:36:44;6.10;;;5.70;;
77890;SDS011;67084;43.624;3.876;2023-02-01T15:39:15;5.80;;;5.38;;
77890;SDS011;67084;43.624;3.876;2023-02-01T15:41:49;6.78;;;6.38;;
77890;SDS011;67084;43.624;3.876;2023-02-01T15:44:19;6.80;;;6.40;;
77890;SDS011;67084;43.624;3.876;2023-02-01T15:46:46;8.25;;;7.47;;
77890;SDS011;67084;43.624;3.876;2023-02-01T15:51:49;15.80;;;12.82;;
77890;SDS011;67084;43.624;3.876;2023-02-01T15:54:19;8.90;;;8.13;;
77890;SDS011;67084;43.624;3.876;2023-02-01T15:56:49;13.90;;;12.23;;
77890;SDS011;67084;43.624;3.876;2023-02-01T15:59:20;17.65;;;14.85;;
77890;SDS011;67084;43.624;3.876;2023-02-01T16:01:47;23.23;;;17.25;;
77890;SDS011;67084;43.624;3.876;2023-02-01T16:04:20;9.35;;;8.45;;
77890;SDS011;67084;43.624;3.876;2023-02-01T16:06:49;29.20;;;23.33;;
77890;SDS011;67084;43.624;3.876;2023-02-01T16:09:16;5.78;;;4.63;;
77890;SDS011;67084;43.624;3.876;2023-02-01T16:11:56;31.98;;;23.60;;
77890;SDS011;67084;43.624;3.876;2023-02-01T16:14:23;13.60;;;11.82;;
77890;SDS011;67084;43.624;3.876;2023-02-01T16:16:50;13.57;;;11.73;;
77890;SDS011;67084;43.624;3.876;2023-02-01T16:19:16;18.92;;;16.08;;
77890;SDS011;67084;43.624;3.876;2023-02-01T16:21:42;26.25;;;18.45;;
77890;SDS011;67084;43.624;3.876;2023-02-01T16:24:09;14.02;;;12.63;;
77890;SDS011;67084;43.624;3.876;2023-02-01T16:26:35;75.55;;;45.22;;
77890;SDS011;67084;43.624;3.876;2023-02-01T16:29:02;113.03;;;65.68;;
77890;SDS011;67084;43.624;3.876;2023-02-01T16:31:32;100.63;;;69.10;;
77890;SDS011;67084;43.624;3.876;2023-02-01T16:33:59;112.85;;;80.50;;
77890;SDS011;67084;43.624;3.876;2023-02-01T16:36:26;54.45;;;40.47;;
77890;SDS011;67084;43.624;3.876;2023-02-01T16:38:53;41.42;;;36.95;;
77890;SDS011;67084;43.624;3.876;2023-02-01T16:41:20;37.40;;;33.45;;
77890;SDS011;67084;43.624;3.876;2023-02-01T16:43:49;39.28;;;35.17;;
77890;SDS011;67084;43.624;3.876;2023-02-01T16:46:16;56.88;;;43.65;;
77890;SDS011;67084;43.624;3.876;2023-02-01T16:48:48;82.38;;;52.63;;
77890;SDS011;67084;43.624;3.876;2023-02-01T16:51:16;22.38;;;18.77;;
77890;SDS011;67084;43.624;3.876;2023-02-01T16:53:42;20.85;;;18.42;;
77890;SDS011;67084;43.624;3.876;2023-02-01T16:56:22;25.48;;;20.83;;
77890;SDS011;67084;43.624;3.876;2023-02-01T16:58:49;23.70;;;19.98;;
77890;SDS011;67084;43.624;3.876;2023-02-01T17:01:15;28.73;;;23.58;;
77890;SDS011;67084;43.624;3.876;2023-02-01T17:03:43;16.30;;;14.65;;
77890;SDS011;67084;43.624;3.876;2023-02-01T17:06:10;10.55;;;9.85;;
77890;SDS011;67084;43.624;3.876;2023-02-01T17:08:39;42.60;;;29.80;;
77890;SDS011;67084;43.624;3.876;2023-02-01T17:11:07;31.48;;;23.17;;
77890;SDS011;67084;43.624;3.876;2023-02-01T17:13:33;39.72;;;23.42;;
77890;SDS011;67084;43.624;3.876;2023-02-01T17:16:04;55.70;;;35.17;;